sensor_id;sensor_type;location;lat;lon;timestamp;temperature;humidity
11136;DHT22;5622;50.840;4.948;2023-12-07T00:02:07;3.00;99.90
11136;DHT22;5622;50.840;4.948;2023-12-07T00:04:38;3.00;99.90
11136;DHT22;5622;50.840;4.948;2023-12-07T00:07:05;3.10;99.90
11136;DHT22;5622;50.840;4.948;2023-12-07T00:09:34;3.10;99.90
11136;DHT22;5622;50.840;4.948;2023-12-07T00:12:00;3.80;99.90
11136;DHT22;5622;50.840;4.948;2023-12-07T00:14:27;3.00;99.90
11136;DHT22;5622;50.840;4.948;2023-12-07T00:16:54;3.10;99.90
11136;DHT22;5622;50.840;4.948;2023-12-07T00:19:24;3.20;99.90
11136;DHT22;5622;50.840;4.948;2023-12-07T00:21:53;3.10;99.90
11136;DHT22;5622;50.840;4.948;2023-12-07T00:24:20;3.20;99.90
11136;DHT22;5622;50.840;4.948;2023-12-07T00:26:48;4.20;99.90
11136;DHT22;5622;50.840;4.948;2023-12-07T00:29:16;3.30;99.90
11136;DHT22;5622;50.840;4.948;2023-12-07T00:31:43;3.30;99.90
11136;DHT22;5622;50.840;4.948;2023-12-07T00:34:10;3.20;99.90
11136;DHT22;5622;50.840;4.948;2023-12-07T00:36:37;3.70;99.90
11136;DHT22;5622;50.840;4.948;2023-12-07T00:39:08;3.20;99.90
11136;DHT22;5622;50.840;4.948;2023-12-07T00:41:36;3.40;99.90
11136;DHT22;5622;50.840;4.948;2023-12-07T00:44:03;3.30;99.90
11136;DHT22;5622;50.840;4.948;2023-12-07T00:46:31;3.30;99.90
11136;DHT22;5622;50.840;4.948;2023-12-07T00:48:58;3.30;99.90
11136;DHT22;5622;50.840;4.948;2023-12-07T00:51:27;3.30;99.90
11136;DHT22;5622;50.840;4.948;2023-12-07T00:53:55;3.30;99.90
11136;DHT22;5622;50.840;4.948;2023-12-07T00:56:23;3.30;99.90
11136;DHT22;5622;50.840;4.948;2023-12-07T00:58:50;3.30;99.90
11136;DHT22;5622;50.840;4.948;2023-12-07T01:01:17;3.50;99.90
11136;DHT22;5622;50.840;4.948;2023-12-07T01:03:44;3.80;99.90
11136;DHT22;5622;50.840;4.948;2023-12-07T01:06:12;3.30;99.90
11136;DHT22;5622;50.840;4.948;2023-12-07T01:08:41;3.40;99.90
11136;DHT22;5622;50.840;4.948;2023-12-07T01:11:08;3.30;99.90
11136;DHT22;5622;50.840;4.948;2023-12-07T01:13:37;3.10;99.90
11136;DHT22;5622;50.840;4.948;2023-12-07T01:16:04;3.30;99.90
11136;DHT22;5622;50.840;4.948;2023-12-07T01:18:31;3.40;99.90
11136;DHT22;5622;50.840;4.948;2023-12-07T01:20:58;3.30;99.90
11136;DHT22;5622;50.840;4.948;2023-12-07T01:23:25;3.40;99.90
11136;DHT22;5622;50.840;4.948;2023-12-07T01:25:52;3.40;99.90
11136;DHT22;5622;50.840;4.948;2023-12-07T01:28:21;4.00;99.90
11136;DHT22;5622;50.840;4.948;2023-12-07T01:30:50;3.50;99.90
11136;DHT22;5622;50.840;4.948;2023-12-07T01:33:17;3.40;99.90
11136;DHT22;5622;50.840;4.948;2023-12-07T01:35:44;3.40;99.90
11136;DHT22;5622;50.840;4.948;2023-12-07T01:38:11;3.50;99.90
11136;DHT22;5622;50.840;4.948;2023-12-07T01:40:38;3.50;99.90
11136;DHT22;5622;50.840;4.948;2023-12-07T01:43:05;3.50;99.90
11136;DHT22;5622;50.840;4.948;2023-12-07T01:45:32;3.60;99.90
11136;DHT22;5622;50.840;4.948;2023-12-07T01:48:01;3.60;99.90
11136;DHT22;5622;50.840;4.948;2023-12-07T01:50:28;3.60;99.90
11136;DHT22;5622;50.840;4.948;2023-12-07T01:53:01;3.60;99.90
11136;DHT22;5622;50.840;4.948;2023-12-07T01:55:29;3.70;99.90
11136;DHT22;5622;50.840;4.948;2023-12-07T01:57:58;3.60;99.90
11136;DHT22;5622;50.840;4.948;2023-12-07T02:00:26;3.50;99.90
11136;DHT22;5622;50.840;4.948;2023-12-07T02:02:54;3.60;99.90
11136;DHT22;5622;50.840;4.948;2023-12-07T02:05:23;2.50;99.90
11136;DHT22;5622;50.840;4.948;2023-12-07T02:07:51;3.60;99.90
11136;DHT22;5622;50.840;4.948;2023-12-07T02:10:18;3.60;99.90
11136;DHT22;5622;50.840;4.948;2023-12-07T02:12:46;3.60;99.90
11136;DHT22;5622;50.840;4.948;2023-12-07T02:15:14;3.60;99.90
11136;DHT22;5622;50.840;4.948;2023-12-07T02:17:49;3.60;99.90
11136;DHT22;5622;50.840;4.948;2023-12-07T02:20:28;4.50;99.90
11136;DHT22;5622;50.840;4.948;2023-12-07T02:22:57;3.60;99.90
11136;DHT22;5622;50.840;4.948;2023-12-07T02:25:34;3.60;99.90
11136;DHT22;5622;50.840;4.948;2023-12-07T02:28:04;3.60;99.90
11136;DHT22;5622;50.840;4.948;2023-12-07T02:30:31;3.60;99.90
11136;DHT22;5622;50.840;4.948;2023-12-07T02:32:58;3.60;99.90
11136;DHT22;5622;50.840;4.948;2023-12-07T02:35:26;3.60;99.90
11136;DHT22;5622;50.840;4.948;2023-12-07T02:37:54;3.50;99.90
11136;DHT22;5622;50.840;4.948;2023-12-07T02:40:25;3.60;99.90
11136;DHT22;5622;50.840;4.948;2023-12-07T02:42:55;3.60;99.90
11136;DHT22;5622;50.840;4.948;2023-12-07T02:45:23;3.60;99.90
11136;DHT22;5622;50.840;4.948;2023-12-07T02:47:52;3.30;99.90
11136;DHT22;5622;50.840;4.948;2023-12-07T02:50:19;3.60;99.90
11136;DHT22;5622;50.840;4.948;2023-12-07T02:52:49;3.60;99.90
11136;DHT22;5622;50.840;4.948;2023-12-07T02:55:16;3.60;99.90
11136;DHT22;5622;50.840;4.948;2023-12-07T02:57:43;3.60;99.90
11136;DHT22;5622;50.840;4.948;2023-12-07T03:00:11;3.80;99.90
11136;DHT22;5622;50.840;4.948;2023-12-07T03:02:41;3.50;99.90
11136;DHT22;5622;50.840;4.948;2023-12-07T03:05:08;3.60;99.90
11136;DHT22;5622;50.840;4.948;2023-12-07T03:07:37;3.60;99.90
11136;DHT22;5622;50.840;4.948;2023-12-07T03:10:05;3.60;99.90
11136;DHT22;5622;50.840;4.948;2023-12-07T03:12:32;3.50;99.90
11136;DHT22;5622;50.840;4.948;2023-12-07T03:14:59;3.60;99.90
11136;DHT22;5622;50.840;4.948;2023-12-07T03:17:26;3.60;99.90
11136;DHT22;5622;50.840;4.948;2023-12-07T03:19:55;3.60;99.90
11136;DHT22;5622;50.840;4.948;2023-12-07T03:22:24;3.50;99.90
11136;DHT22;5622;50.840;4.948;2023-12-07T03:24:52;3.60;99.90
11136;DHT22;5622;50.840;4.948;2023-12-07T03:27:19;3.60;99.90
11136;DHT22;5622;50.840;4.948;2023-12-07T03:29:49;3.50;99.90
11136;DHT22;5622;50.840;4.948;2023-12-07T03:32:17;3.60;99.90
11136;DHT22;5622;50.840;4.948;2023-12-07T03:34:45;3.60;99.90
11136;DHT22;5622;50.840;4.948;2023-12-07T03:37:13;3.60;99.90
11136;DHT22;5622;50.840;4.948;2023-12-07T03:39:40;3.60;99.90
11136;DHT22;5622;50.840;4.948;2023-12-07T03:42:07;3.60;99.90
11136;DHT22;5622;50.840;4.948;2023-12-07T03:44:35;3.50;99.90
11136;DHT22;5622;50.840;4.948;2023-12-07T03:47:02;3.60;99.90
11136;DHT22;5622;50.840;4.948;2023-12-07T03:49:29;3.60;99.90
11136;DHT22;5622;50.840;4.948;2023-12-07T03:51:56;3.50;99.90
11136;DHT22;5622;50.840;4.948;2023-12-07T03:54:24;3.60;99.90
11136;DHT22;5622;50.840;4.948;2023-12-07T03:56:51;3.60;99.90
11136;DHT22;5622;50.840;4.948;2023-12-07T03:59:18;3.50;99.90
11136;DHT22;5622;50.840;4.948;2023-12-07T04:01:45;3.50;99.90
11136;DHT22;5622;50.840;4.948;2023-12-07T04:04:13;3.50;99.90
11136;DHT22;5622;50.840;4.948;2023-12-07T04:06:42;3.60;99.90
11136;DHT22;5622;50.840;4.948;2023-12-07T04:09:09;3.50;99.90
11136;DHT22;5622;50.840;4.948;2023-12-07T04:11:37;4.30;99.90
11136;DHT22;5622;50.840;4.948;2023-12-07T04:14:04;3.60;99.90
11136;DHT22;5622;50.840;4.948;2023-12-07T04:16:33;3.60;99.90
11136;DHT22;5622;50.840;4.948;2023-12-07T04:19:01;3.60;99.90
11136;DHT22;5622;50.840;4.948;2023-12-07T04:21:28;3.50;99.90
11136;DHT22;5622;50.840;4.948;2023-12-07T04:23:55;3.50;99.90
11136;DHT22;5622;50.840;4.948;2023-12-07T04:26:22;3.50;99.90
11136;DHT22;5622;50.840;4.948;2023-12-07T04:28:50;3.50;99.90
11136;DHT22;5622;50.840;4.948;2023-12-07T04:31:19;3.60;99.90
11136;DHT22;5622;50.840;4.948;2023-12-07T04:33:46;4.20;99.90
11136;DHT22;5622;50.840;4.948;2023-12-07T04:36:14;3.60;99.90
11136;DHT22;5622;50.840;4.948;2023-12-07T04:38:41;3.60;99.90
11136;DHT22;5622;50.840;4.948;2023-12-07T04:41:08;3.50;99.90
11136;DHT22;5622;50.840;4.948;2023-12-07T04:43:35;3.60;99.90
11136;DHT22;5622;50.840;4.948;2023-12-07T04:46:04;3.70;99.90
11136;DHT22;5622;50.840;4.948;2023-12-07T04:48:31;3.60;99.90
11136;DHT22;5622;50.840;4.948;2023-12-07T04:50:58;4.40;99.90
11136;DHT22;5622;50.840;4.948;2023-12-07T04:53:25;3.60;99.90
11136;DHT22;5622;50.840;4.948;2023-12-07T04:55:52;4.00;99.90
11136;DHT22;5622;50.840;4.948;2023-12-07T04:58:19;3.60;99.90
11136;DHT22;5622;50.840;4.948;2023-12-07T05:00:50;3.60;99.90
11136;DHT22;5622;50.840;4.948;2023-12-07T05:03:18;3.60;99.90
11136;DHT22;5622;50.840;4.948;2023-12-07T05:05:45;3.60;99.90
11136;DHT22;5622;50.840;4.948;2023-12-07T05:08:13;3.60;99.90
11136;DHT22;5622;50.840;4.948;2023-12-07T05:10:40;3.60;99.90
11136;DHT22;5622;50.840;4.948;2023-12-07T05:13:07;3.20;99.90
11136;DHT22;5622;50.840;4.948;2023-12-07T05:15:35;3.50;99.90
11136;DHT22;5622;50.840;4.948;2023-12-07T05:18:02;3.50;99.90
11136;DHT22;5622;50.840;4.948;2023-12-07T05:20:30;3.50;99.90
11136;DHT22;5622;50.840;4.948;2023-12-07T05:22:57;3.60;99.90
11136;DHT22;5622;50.840;4.948;2023-12-07T05:25:24;4.30;99.90
11136;DHT22;5622;50.840;4.948;2023-12-07T05:27:51;3.50;99.90
11136;DHT22;5622;50.840;4.948;2023-12-07T05:30:19;3.50;99.90
11136;DHT22;5622;50.840;4.948;2023-12-07T05:32:46;3.50;99.90
11136;DHT22;5622;50.840;4.948;2023-12-07T05:35:13;3.50;99.90
11136;DHT22;5622;50.840;4.948;2023-12-07T05:37:43;3.50;99.90
11136;DHT22;5622;50.840;4.948;2023-12-07T05:40:11;3.60;99.90
11136;DHT22;5622;50.840;4.948;2023-12-07T05:42:38;3.50;99.90
11136;DHT22;5622;50.840;4.948;2023-12-07T05:45:06;3.60;99.90
11136;DHT22;5622;50.840;4.948;2023-12-07T05:47:35;3.50;99.90
11136;DHT22;5622;50.840;4.948;2023-12-07T05:50:03;3.60;99.90
11136;DHT22;5622;50.840;4.948;2023-12-07T05:52:30;3.50;99.90
11136;DHT22;5622;50.840;4.948;2023-12-07T05:54:59;3.50;99.90
11136;DHT22;5622;50.840;4.948;2023-12-07T05:57:26;3.50;99.90
11136;DHT22;5622;50.840;4.948;2023-12-07T05:59:53;3.60;99.90
11136;DHT22;5622;50.840;4.948;2023-12-07T06:02:25;3.60;99.90
11136;DHT22;5622;50.840;4.948;2023-12-07T06:04:52;3.50;99.90
11136;DHT22;5622;50.840;4.948;2023-12-07T06:07:19;3.50;99.90
11136;DHT22;5622;50.840;4.948;2023-12-07T06:09:47;3.50;99.90
11136;DHT22;5622;50.840;4.948;2023-12-07T06:12:15;3.50;99.90
11136;DHT22;5622;50.840;4.948;2023-12-07T06:14:42;3.50;99.90
11136;DHT22;5622;50.840;4.948;2023-12-07T06:17:10;3.60;99.90
11136;DHT22;5622;50.840;4.948;2023-12-07T06:19:37;3.60;99.90
11136;DHT22;5622;50.840;4.948;2023-12-07T06:22:04;3.50;99.90
11136;DHT22;5622;50.840;4.948;2023-12-07T06:24:31;3.60;99.90
11136;DHT22;5622;50.840;4.948;2023-12-07T06:26:59;3.50;99.90
11136;DHT22;5622;50.840;4.948;2023-12-07T06:29:28;3.60;99.90
11136;DHT22;5622;50.840;4.948;2023-12-07T06:31:57;3.60;99.90
11136;DHT22;5622;50.840;4.948;2023-12-07T06:34:24;3.60;99.90
11136;DHT22;5622;50.840;4.948;2023-12-07T06:36:51;3.60;99.90
11136;DHT22;5622;50.840;4.948;2023-12-07T06:39:18;3.60;99.90
11136;DHT22;5622;50.840;4.948;2023-12-07T06:41:45;3.70;99.90
11136;DHT22;5622;50.840;4.948;2023-12-07T06:44:12;3.60;99.90
11136;DHT22;5622;50.840;4.948;2023-12-07T06:46:41;3.70;99.90
11136;DHT22;5622;50.840;4.948;2023-12-07T06:49:08;3.60;99.90
11136;DHT22;5622;50.840;4.948;2023-12-07T06:51:35;3.60;99.90
11136;DHT22;5622;50.840;4.948;2023-12-07T06:54:02;3.60;99.90
11136;DHT22;5622;50.840;4.948;2023-12-07T06:56:29;3.60;99.90
11136;DHT22;5622;50.840;4.948;2023-12-07T06:58:56;3.50;99.90
11136;DHT22;5622;50.840;4.948;2023-12-07T07:01:23;3.50;99.90
11136;DHT22;5622;50.840;4.948;2023-12-07T07:03:52;3.50;99.90
11136;DHT22;5622;50.840;4.948;2023-12-07T07:06:19;4.80;99.90
11136;DHT22;5622;50.840;4.948;2023-12-07T07:08:46;4.30;99.90
11136;DHT22;5622;50.840;4.948;2023-12-07T07:11:14;3.30;99.90
11136;DHT22;5622;50.840;4.948;2023-12-07T07:13:41;3.30;99.90
11136;DHT22;5622;50.840;4.948;2023-12-07T07:16:09;3.10;99.90
11136;DHT22;5622;50.840;4.948;2023-12-07T07:18:37;3.30;99.90
11136;DHT22;5622;50.840;4.948;2023-12-07T07:21:06;3.10;99.90
11136;DHT22;5622;50.840;4.948;2023-12-07T07:23:35;4.30;99.90
11136;DHT22;5622;50.840;4.948;2023-12-07T07:26:02;3.10;99.90
11136;DHT22;5622;50.840;4.948;2023-12-07T07:28:29;3.10;99.90
11136;DHT22;5622;50.840;4.948;2023-12-07T07:30:57;3.00;99.90
11136;DHT22;5622;50.840;4.948;2023-12-07T07:33:24;3.00;99.90
11136;DHT22;5622;50.840;4.948;2023-12-07T07:35:52;3.00;99.90
11136;DHT22;5622;50.840;4.948;2023-12-07T07:38:20;2.90;99.90
11136;DHT22;5622;50.840;4.948;2023-12-07T07:40:48;2.90;99.90
11136;DHT22;5622;50.840;4.948;2023-12-07T07:43:15;3.40;99.90
11136;DHT22;5622;50.840;4.948;2023-12-07T07:45:43;2.10;99.90
11136;DHT22;5622;50.840;4.948;2023-12-07T07:48:11;2.90;99.90
11136;DHT22;5622;50.840;4.948;2023-12-07T07:50:39;2.80;99.90
11136;DHT22;5622;50.840;4.948;2023-12-07T07:53:06;3.40;99.90
11136;DHT22;5622;50.840;4.948;2023-12-07T07:55:34;2.80;99.90
11136;DHT22;5622;50.840;4.948;2023-12-07T07:58:01;2.80;99.90
11136;DHT22;5622;50.840;4.948;2023-12-07T08:00:28;3.30;99.90
11136;DHT22;5622;50.840;4.948;2023-12-07T08:02:56;2.80;99.90
11136;DHT22;5622;50.840;4.948;2023-12-07T08:05:23;2.90;99.90
11136;DHT22;5622;50.840;4.948;2023-12-07T08:07:50;2.70;99.90
11136;DHT22;5622;50.840;4.948;2023-12-07T08:10:18;3.30;99.90
11136;DHT22;5622;50.840;4.948;2023-12-07T08:12:46;2.70;99.90
11136;DHT22;5622;50.840;4.948;2023-12-07T08:15:13;2.70;99.90
11136;DHT22;5622;50.840;4.948;2023-12-07T08:17:40;2.60;99.90
11136;DHT22;5622;50.840;4.948;2023-12-07T08:20:08;3.00;99.90
11136;DHT22;5622;50.840;4.948;2023-12-07T08:22:36;2.60;99.90
11136;DHT22;5622;50.840;4.948;2023-12-07T08:25:12;2.60;99.90
11136;DHT22;5622;50.840;4.948;2023-12-07T08:27:39;2.60;99.90
11136;DHT22;5622;50.840;4.948;2023-12-07T08:30:09;2.60;99.90
11136;DHT22;5622;50.840;4.948;2023-12-07T08:32:36;2.60;99.90
11136;DHT22;5622;50.840;4.948;2023-12-07T08:35:04;2.60;99.90
11136;DHT22;5622;50.840;4.948;2023-12-07T08:37:32;2.50;99.90
11136;DHT22;5622;50.840;4.948;2023-12-07T08:39:59;2.60;99.90
11136;DHT22;5622;50.840;4.948;2023-12-07T08:42:26;2.50;99.90
11136;DHT22;5622;50.840;4.948;2023-12-07T08:44:53;2.50;99.90
11136;DHT22;5622;50.840;4.948;2023-12-07T08:47:22;2.60;99.90
11136;DHT22;5622;50.840;4.948;2023-12-07T08:49:49;4.00;99.90
11136;DHT22;5622;50.840;4.948;2023-12-07T08:52:16;2.70;99.90
11136;DHT22;5622;50.840;4.948;2023-12-07T08:54:44;2.70;99.90
11136;DHT22;5622;50.840;4.948;2023-12-07T08:57:12;2.80;99.90
11136;DHT22;5622;50.840;4.948;2023-12-07T08:59:39;2.80;99.90
11136;DHT22;5622;50.840;4.948;2023-12-07T09:02:06;2.90;99.90
11136;DHT22;5622;50.840;4.948;2023-12-07T09:04:35;2.90;99.90
11136;DHT22;5622;50.840;4.948;2023-12-07T09:07:02;3.00;99.90
11136;DHT22;5622;50.840;4.948;2023-12-07T09:09:29;3.00;99.90
11136;DHT22;5622;50.840;4.948;2023-12-07T09:11:56;3.10;99.90
11136;DHT22;5622;50.840;4.948;2023-12-07T09:14:23;3.10;99.90
11136;DHT22;5622;50.840;4.948;2023-12-07T09:16:52;3.10;99.90
11136;DHT22;5622;50.840;4.948;2023-12-07T09:19:20;3.20;99.90
11136;DHT22;5622;50.840;4.948;2023-12-07T09:21:48;3.30;99.90
11136;DHT22;5622;50.840;4.948;2023-12-07T09:24:15;3.30;99.90
11136;DHT22;5622;50.840;4.948;2023-12-07T09:26:44;3.40;99.90
11136;DHT22;5622;50.840;4.948;2023-12-07T09:29:12;3.50;99.90
11136;DHT22;5622;50.840;4.948;2023-12-07T09:31:39;3.60;99.90
11136;DHT22;5622;50.840;4.948;2023-12-07T09:34:06;3.70;99.90
11136;DHT22;5622;50.840;4.948;2023-12-07T09:36:34;3.70;99.90
11136;DHT22;5622;50.840;4.948;2023-12-07T09:39:02;3.70;99.90
11136;DHT22;5622;50.840;4.948;2023-12-07T09:41:30;3.80;99.90
11136;DHT22;5622;50.840;4.948;2023-12-07T09:43:57;3.80;99.90
11136;DHT22;5622;50.840;4.948;2023-12-07T09:46:26;3.80;99.90
11136;DHT22;5622;50.840;4.948;2023-12-07T09:48:54;3.90;99.90
11136;DHT22;5622;50.840;4.948;2023-12-07T09:51:25;3.90;99.90
11136;DHT22;5622;50.840;4.948;2023-12-07T09:53:53;3.90;99.90
11136;DHT22;5622;50.840;4.948;2023-12-07T09:56:21;3.90;99.90
11136;DHT22;5622;50.840;4.948;2023-12-07T09:58:48;4.00;99.90
11136;DHT22;5622;50.840;4.948;2023-12-07T10:01:17;4.00;99.90
11136;DHT22;5622;50.840;4.948;2023-12-07T10:03:44;4.00;99.90
11136;DHT22;5622;50.840;4.948;2023-12-07T10:06:12;4.00;99.90
11136;DHT22;5622;50.840;4.948;2023-12-07T10:08:39;4.10;99.90
11136;DHT22;5622;50.840;4.948;2023-12-07T10:11:07;4.10;99.90
11136;DHT22;5622;50.840;4.948;2023-12-07T10:13:36;4.20;99.90
11136;DHT22;5622;50.840;4.948;2023-12-07T10:16:09;5.00;99.90
11136;DHT22;5622;50.840;4.948;2023-12-07T10:18:36;4.30;99.90
11136;DHT22;5622;50.840;4.948;2023-12-07T10:21:05;4.20;99.90
11136;DHT22;5622;50.840;4.948;2023-12-07T10:23:33;4.20;99.90
11136;DHT22;5622;50.840;4.948;2023-12-07T10:26:00;4.20;99.90
11136;DHT22;5622;50.840;4.948;2023-12-07T10:28:28;4.30;99.90
11136;DHT22;5622;50.840;4.948;2023-12-07T10:30:57;4.30;99.90
11136;DHT22;5622;50.840;4.948;2023-12-07T10:33:26;4.40;99.90
11136;DHT22;5622;50.840;4.948;2023-12-07T10:35:53;4.40;99.90
11136;DHT22;5622;50.840;4.948;2023-12-07T10:38:20;4.00;99.90
11136;DHT22;5622;50.840;4.948;2023-12-07T10:40:49;4.50;99.90
11136;DHT22;5622;50.840;4.948;2023-12-07T10:43:19;4.50;99.90
11136;DHT22;5622;50.840;4.948;2023-12-07T10:45:47;4.50;99.90
11136;DHT22;5622;50.840;4.948;2023-12-07T10:48:17;4.50;99.90
11136;DHT22;5622;50.840;4.948;2023-12-07T10:50:49;4.50;99.90
11136;DHT22;5622;50.840;4.948;2023-12-07T10:53:20;4.50;99.90
11136;DHT22;5622;50.840;4.948;2023-12-07T10:55:56;4.50;99.90
11136;DHT22;5622;50.840;4.948;2023-12-07T10:58:24;4.60;99.90
11136;DHT22;5622;50.840;4.948;2023-12-07T11:00:53;4.60;99.90
11136;DHT22;5622;50.840;4.948;2023-12-07T11:03:22;4.60;99.90
11136;DHT22;5622;50.840;4.948;2023-12-07T11:05:49;4.60;99.90
11136;DHT22;5622;50.840;4.948;2023-12-07T11:08:23;4.70;99.90
11136;DHT22;5622;50.840;4.948;2023-12-07T11:10:59;4.60;99.90
11136;DHT22;5622;50.840;4.948;2023-12-07T11:13:30;4.70;99.90
11136;DHT22;5622;50.840;4.948;2023-12-07T11:16:02;4.60;99.90
11136;DHT22;5622;50.840;4.948;2023-12-07T11:18:33;4.60;99.90
11136;DHT22;5622;50.840;4.948;2023-12-07T11:21:01;4.70;99.90
11136;DHT22;5622;50.840;4.948;2023-12-07T11:23:28;4.70;99.90
11136;DHT22;5622;50.840;4.948;2023-12-07T11:25:55;4.70;99.90
11136;DHT22;5622;50.840;4.948;2023-12-07T11:28:35;4.70;99.90
11136;DHT22;5622;50.840;4.948;2023-12-07T11:31:03;4.70;99.90
11136;DHT22;5622;50.840;4.948;2023-12-07T11:33:30;4.70;99.90
11136;DHT22;5622;50.840;4.948;2023-12-07T11:36:09;4.80;99.90
11136;DHT22;5622;50.840;4.948;2023-12-07T11:38:38;4.80;99.90
11136;DHT22;5622;50.840;4.948;2023-12-07T11:41:06;4.80;99.90
11136;DHT22;5622;50.840;4.948;2023-12-07T11:43:40;4.80;99.90
11136;DHT22;5622;50.840;4.948;2023-12-07T11:46:10;4.80;99.90
11136;DHT22;5622;50.840;4.948;2023-12-07T11:48:37;4.80;99.90
11136;DHT22;5622;50.840;4.948;2023-12-07T11:51:08;4.80;99.90
11136;DHT22;5622;50.840;4.948;2023-12-07T11:53:38;4.80;99.90
11136;DHT22;5622;50.840;4.948;2023-12-07T11:56:06;4.90;99.90
11136;DHT22;5622;50.840;4.948;2023-12-07T11:58:34;4.90;99.90
11136;DHT22;5622;50.840;4.948;2023-12-07T12:01:03;4.90;99.90
11136;DHT22;5622;50.840;4.948;2023-12-07T12:03:31;5.00;99.90
11136;DHT22;5622;50.840;4.948;2023-12-07T12:05:59;4.90;99.90
11136;DHT22;5622;50.840;4.948;2023-12-07T12:08:28;5.00;99.90
11136;DHT22;5622;50.840;4.948;2023-12-07T12:10:56;5.00;99.90
11136;DHT22;5622;50.840;4.948;2023-12-07T12:13:26;5.00;99.90
11136;DHT22;5622;50.840;4.948;2023-12-07T12:15:55;5.00;99.90
11136;DHT22;5622;50.840;4.948;2023-12-07T12:18:23;5.00;99.90
11136;DHT22;5622;50.840;4.948;2023-12-07T12:20:52;5.00;99.90
11136;DHT22;5622;50.840;4.948;2023-12-07T12:23:20;5.00;99.90
11136;DHT22;5622;50.840;4.948;2023-12-07T12:25:48;5.00;99.90
11136;DHT22;5622;50.840;4.948;2023-12-07T12:28:16;5.10;99.90
11136;DHT22;5622;50.840;4.948;2023-12-07T12:30:45;5.00;99.90
11136;DHT22;5622;50.840;4.948;2023-12-07T12:33:13;5.10;99.90
11136;DHT22;5622;50.840;4.948;2023-12-07T12:35:40;5.00;99.90
11136;DHT22;5622;50.840;4.948;2023-12-07T12:38:12;5.00;99.90
11136;DHT22;5622;50.840;4.948;2023-12-07T12:40:39;5.00;99.90
11136;DHT22;5622;50.840;4.948;2023-12-07T12:43:10;5.10;99.90
11136;DHT22;5622;50.840;4.948;2023-12-07T12:45:37;5.10;99.90
11136;DHT22;5622;50.840;4.948;2023-12-07T12:48:04;5.10;99.90
11136;DHT22;5622;50.840;4.948;2023-12-07T12:50:34;5.10;99.90
11136;DHT22;5622;50.840;4.948;2023-12-07T12:53:03;5.10;99.90
11136;DHT22;5622;50.840;4.948;2023-12-07T12:55:32;5.10;99.90
11136;DHT22;5622;50.840;4.948;2023-12-07T12:57:59;5.10;99.90
11136;DHT22;5622;50.840;4.948;2023-12-07T13:00:28;5.10;99.90
11136;DHT22;5622;50.840;4.948;2023-12-07T13:02:57;5.10;99.90
11136;DHT22;5622;50.840;4.948;2023-12-07T13:05:24;5.10;99.90
11136;DHT22;5622;50.840;4.948;2023-12-07T13:07:51;5.10;99.90
11136;DHT22;5622;50.840;4.948;2023-12-07T13:10:20;5.10;99.90
11136;DHT22;5622;50.840;4.948;2023-12-07T13:12:47;5.10;99.90
11136;DHT22;5622;50.840;4.948;2023-12-07T13:15:14;5.10;99.90
11136;DHT22;5622;50.840;4.948;2023-12-07T13:17:44;5.10;99.90
11136;DHT22;5622;50.840;4.948;2023-12-07T13:20:11;5.10;99.90
11136;DHT22;5622;50.840;4.948;2023-12-07T13:22:39;5.10;99.90
11136;DHT22;5622;50.840;4.948;2023-12-07T13:25:09;5.10;99.90
11136;DHT22;5622;50.840;4.948;2023-12-07T13:27:37;5.10;99.90
11136;DHT22;5622;50.840;4.948;2023-12-07T13:30:05;5.10;99.90
11136;DHT22;5622;50.840;4.948;2023-12-07T13:32:33;5.10;99.90
11136;DHT22;5622;50.840;4.948;2023-12-07T13:35:04;5.10;99.90
11136;DHT22;5622;50.840;4.948;2023-12-07T13:37:31;5.10;99.90
11136;DHT22;5622;50.840;4.948;2023-12-07T13:39:59;5.10;99.90
11136;DHT22;5622;50.840;4.948;2023-12-07T13:42:30;5.10;99.90
11136;DHT22;5622;50.840;4.948;2023-12-07T13:44:58;5.10;99.90
11136;DHT22;5622;50.840;4.948;2023-12-07T13:47:26;5.10;99.90
11136;DHT22;5622;50.840;4.948;2023-12-07T13:49:57;5.10;99.90
11136;DHT22;5622;50.840;4.948;2023-12-07T13:52:26;5.10;99.90
11136;DHT22;5622;50.840;4.948;2023-12-07T13:54:54;5.10;99.90
11136;DHT22;5622;50.840;4.948;2023-12-07T13:57:22;6.20;99.90
11136;DHT22;5622;50.840;4.948;2023-12-07T13:59:52;5.10;99.90
11136;DHT22;5622;50.840;4.948;2023-12-07T14:02:20;5.10;99.90
11136;DHT22;5622;50.840;4.948;2023-12-07T14:04:47;5.10;99.90
11136;DHT22;5622;50.840;4.948;2023-12-07T14:07:16;4.70;99.90
11136;DHT22;5622;50.840;4.948;2023-12-07T14:09:47;5.10;99.90
11136;DHT22;5622;50.840;4.948;2023-12-07T14:12:15;5.10;99.90
11136;DHT22;5622;50.840;4.948;2023-12-07T14:14:42;5.10;99.90
11136;DHT22;5622;50.840;4.948;2023-12-07T14:17:10;5.10;99.90
11136;DHT22;5622;50.840;4.948;2023-12-07T14:19:37;5.10;99.90
11136;DHT22;5622;50.840;4.948;2023-12-07T14:22:05;5.10;99.90
11136;DHT22;5622;50.840;4.948;2023-12-07T14:24:35;5.10;99.90
11136;DHT22;5622;50.840;4.948;2023-12-07T14:27:05;5.10;99.90
11136;DHT22;5622;50.840;4.948;2023-12-07T14:29:33;5.00;99.90
11136;DHT22;5622;50.840;4.948;2023-12-07T14:32:00;5.00;99.90
11136;DHT22;5622;50.840;4.948;2023-12-07T14:34:27;5.00;99.90
11136;DHT22;5622;50.840;4.948;2023-12-07T14:36:55;5.00;99.90
11136;DHT22;5622;50.840;4.948;2023-12-07T14:39:24;5.00;99.90
11136;DHT22;5622;50.840;4.948;2023-12-07T14:41:51;4.90;99.90
11136;DHT22;5622;50.840;4.948;2023-12-07T14:44:19;4.90;99.90
11136;DHT22;5622;50.840;4.948;2023-12-07T14:46:47;4.90;99.90
11136;DHT22;5622;50.840;4.948;2023-12-07T14:49:16;4.90;99.90
11136;DHT22;5622;50.840;4.948;2023-12-07T14:51:46;4.80;99.90
11136;DHT22;5622;50.840;4.948;2023-12-07T14:54:13;4.90;99.90
11136;DHT22;5622;50.840;4.948;2023-12-07T14:56:41;4.80;99.90
11136;DHT22;5622;50.840;4.948;2023-12-07T14:59:09;4.80;99.90
11136;DHT22;5622;50.840;4.948;2023-12-07T15:01:39;4.70;99.90
11136;DHT22;5622;50.840;4.948;2023-12-07T15:04:06;4.70;99.90
11136;DHT22;5622;50.840;4.948;2023-12-07T15:06:33;4.70;99.90
11136;DHT22;5622;50.840;4.948;2023-12-07T15:09:01;4.60;99.90
11136;DHT22;5622;50.840;4.948;2023-12-07T15:11:31;4.60;99.90
11136;DHT22;5622;50.840;4.948;2023-12-07T15:13:58;4.60;99.90
11136;DHT22;5622;50.840;4.948;2023-12-07T15:16:25;4.50;99.90
11136;DHT22;5622;50.840;4.948;2023-12-07T15:18:54;4.40;99.90
11136;DHT22;5622;50.840;4.948;2023-12-07T15:21:24;4.40;99.90
11136;DHT22;5622;50.840;4.948;2023-12-07T15:23:51;4.60;99.90
11136;DHT22;5622;50.840;4.948;2023-12-07T15:26:18;4.30;99.90
11136;DHT22;5622;50.840;4.948;2023-12-07T15:28:50;4.30;99.90
11136;DHT22;5622;50.840;4.948;2023-12-07T15:31:17;4.30;99.90
11136;DHT22;5622;50.840;4.948;2023-12-07T15:33:44;4.20;99.90
11136;DHT22;5622;50.840;4.948;2023-12-07T15:36:14;4.30;99.90
11136;DHT22;5622;50.840;4.948;2023-12-07T15:38:43;4.30;99.90
11136;DHT22;5622;50.840;4.948;2023-12-07T15:41:10;4.20;99.90
11136;DHT22;5622;50.840;4.948;2023-12-07T15:43:38;4.20;99.90
11136;DHT22;5622;50.840;4.948;2023-12-07T15:46:05;4.20;99.90
11136;DHT22;5622;50.840;4.948;2023-12-07T15:48:34;4.20;99.90
11136;DHT22;5622;50.840;4.948;2023-12-07T15:51:01;4.20;99.90
11136;DHT22;5622;50.840;4.948;2023-12-07T15:53:30;4.20;99.90
11136;DHT22;5622;50.840;4.948;2023-12-07T15:55:58;4.20;99.90
11136;DHT22;5622;50.840;4.948;2023-12-07T15:58:26;4.20;99.90
11136;DHT22;5622;50.840;4.948;2023-12-07T16:00:53;4.20;99.90
11136;DHT22;5622;50.840;4.948;2023-12-07T16:03:20;4.20;99.90
11136;DHT22;5622;50.840;4.948;2023-12-07T16:05:48;4.10;99.90
11136;DHT22;5622;50.840;4.948;2023-12-07T16:08:17;4.20;99.90